createdAt,value
2018-11-26T00:09:56.006Z,77.7
2018-11-26T00:25:08.924Z,78.5
2018-11-26T00:40:22.058Z,79.1
2018-11-26T00:55:31.278Z,79.5
2018-11-26T01:10:48.557Z,81
2018-11-26T01:26:01.482Z,81.2
2018-11-26T01:41:14.749Z,80.6
2018-11-26T01:56:27.954Z,80.9
2018-11-26T02:11:41.505Z,79.6
2018-11-26T02:26:54.416Z,79.6
2018-11-26T02:42:07.725Z,80.2
2018-11-26T02:57:21.102Z,81
2018-11-26T03:12:30.277Z,81.2
2018-11-26T03:27:47.238Z,81.7
2018-11-26T03:43:00.444Z,78.5
2018-11-26T03:58:13.478Z,77.9
2018-11-26T04:13:26.906Z,77.8
2018-11-26T04:28:39.725Z,77.2
2018-11-26T04:43:53.620Z,78.4
2018-11-26T04:59:05.672Z,79.5
2018-11-26T05:14:18.811Z,80.1
2018-11-26T05:29:27.524Z,81.3
2018-11-26T05:44:45.401Z,82.5
2018-11-26T05:59:57.494Z,84.1
2018-11-26T06:15:10.240Z,85.3
2018-11-26T06:30:23.025Z,85.8
2018-11-26T06:45:35.890Z,85.9
2018-11-26T07:00:48.602Z,86.2
2018-11-26T07:16:01.484Z,86.1
2018-11-26T07:31:14.293Z,86
2018-11-26T07:46:22.816Z,85.8
2018-11-26T08:01:39.735Z,85.6
2018-11-26T08:16:52.721Z,85.2
2018-11-26T08:32:05.953Z,85.7
2018-11-26T08:47:17.897Z,85.8
2018-11-26T09:02:30.560Z,83.7
2018-11-26T09:17:43.281Z,80.5
2018-11-26T09:32:56.021Z,78.3
2018-11-26T09:48:08.444Z,78.8
2018-11-26T10:03:16.364Z,78.2
2018-11-26T10:18:33.828Z,77.9
2018-11-26T10:33:46.223Z,79.6
2018-11-26T10:48:58.817Z,79.9
2018-11-26T11:04:11.465Z,79.2
2018-11-26T11:19:24.265Z,76.9
2018-11-26T11:34:36.887Z,74.5
2018-11-26T11:49:49.659Z,72.6
2018-11-26T12:05:02.382Z,71
2018-11-26T12:20:09.760Z,70.8
2018-11-26T12:35:27.829Z,71.7
2018-11-26T12:50:40.576Z,72.2
2018-11-26T13:05:53.299Z,72.2
2018-11-26T13:21:05.992Z,70.9
2018-11-26T13:36:18.793Z,71.4
2018-11-26T13:51:31.391Z,70.8
2018-11-26T14:06:44.226Z,70.4
2018-11-26T14:21:56.797Z,70.9
2018-11-26T14:37:04.383Z,68.2
2018-11-26T14:52:21.495Z,67.7
2018-11-26T15:07:33.796Z,68.5
2018-11-26T15:22:46.372Z,70.8
2018-11-26T15:37:58.621Z,71.3
2018-11-26T15:53:11.395Z,69.2
2018-11-26T16:08:23.525Z,68.1
2018-11-26T16:23:36.866Z,67.3
2018-11-26T16:38:49.873Z,67
2018-11-26T16:53:56.492Z,66.7
2018-11-26T17:09:13.328Z,66.9
2018-11-26T17:24:25.312Z,67.6
2018-11-26T17:39:37.926Z,67.7
2018-11-26T17:54:50.109Z,68.8
2018-11-26T18:10:02.410Z,68.5
2018-11-26T18:25:14.425Z,68.4
2018-11-26T18:40:27.116Z,67.4
2018-11-26T18:55:39.263Z,66
2018-11-26T19:10:47.949Z,65.8
2018-11-26T19:26:03.908Z,64.9
2018-11-26T19:41:15.698Z,65.1
2018-11-26T19:56:28.344Z,65.7
2018-11-26T20:11:40.729Z,66.8
2018-11-26T20:26:52.378Z,67.4
2018-11-26T20:42:04.601Z,66.7
2018-11-26T20:57:16.716Z,68
2018-11-26T21:12:28.960Z,68.1
2018-11-26T21:27:37.497Z,65.4
2018-11-26T21:42:53.787Z,65.8
2018-11-26T21:58:05.800Z,68.6
2018-11-26T22:13:18.106Z,69
2018-11-26T22:28:29.979Z,68.5
2018-11-26T22:43:41.995Z,69.2
2018-11-26T22:58:54.058Z,70
2018-11-26T23:11:30.899Z,65.3
2018-11-26T23:26:56.758Z,67.3
2018-11-26T23:42:22.220Z,67.3
2018-11-26T23:57:48.022Z,65.9
